createdAt,value
2023-05-10T00:02:10.833Z,2.80
2023-05-10T00:04:39.105Z,2.70
2023-05-10T00:07:07.844Z,2.40
2023-05-10T00:09:35.935Z,2.70
2023-05-10T00:12:04.159Z,2.80
2023-05-10T00:14:32.556Z,2.70
2023-05-10T00:17:00.911Z,2.50
2023-05-10T00:19:29.116Z,2.20
2023-05-10T00:21:57.409Z,2.30
2023-05-10T00:24:25.572Z,2.80
2023-05-10T00:26:53.706Z,2.60
2023-05-10T00:29:21.886Z,2.60
2023-05-10T00:31:50.106Z,2.70
2023-05-10T00:34:18.379Z,2.70
2023-05-10T00:36:46.665Z,2.30
2023-05-10T00:39:14.658Z,2.30
2023-05-10T00:41:42.742Z,2.50
2023-05-10T00:44:10.957Z,2.60
2023-05-10T00:46:39.087Z,2.40
2023-05-10T00:49:07.654Z,2.60
2023-05-10T00:51:36.257Z,2.60
2023-05-10T00:54:04.526Z,2.60
2023-05-10T00:56:32.961Z,2.70
2023-05-10T00:59:01.177Z,2.50
2023-05-10T01:01:30.272Z,2.60
2023-05-10T01:03:59.232Z,2.20
2023-05-10T01:06:27.799Z,2.70
2023-05-10T01:08:57.103Z,2.40
2023-05-10T01:11:25.524Z,2.40
2023-05-10T01:13:57.700Z,2.60
2023-05-10T01:16:27.271Z,2.50
2023-05-10T01:18:55.516Z,2.40
2023-05-10T01:21:33.191Z,2.30
2023-05-10T01:24:16.123Z,2.50
2023-05-10T01:27:02.818Z,2.60
2023-05-10T01:30:14.713Z,2.40
2023-05-10T01:32:52.118Z,2.00
2023-05-10T01:35:25.990Z,2.60
2023-05-10T01:38:19.860Z,2.80
2023-05-10T01:41:20.143Z,2.50
2023-05-10T01:44:04.752Z,2.50
2023-05-10T01:46:38.261Z,2.40
2023-05-10T01:49:12.902Z,2.30
2023-05-10T01:51:48.232Z,2.50
2023-05-10T01:54:20.713Z,2.70
2023-05-10T01:57:05.110Z,2.50
2023-05-10T01:59:37.634Z,2.30
2023-05-10T02:02:06.606Z,2.20
2023-05-10T02:04:38.676Z,2.30
2023-05-10T02:07:08.245Z,2.30
2023-05-10T02:09:38.125Z,2.60
2023-05-10T02:12:07.422Z,2.60
2023-05-10T02:14:37.374Z,2.70
2023-05-10T02:17:07.833Z,2.80
2023-05-10T02:19:39.674Z,2.80
2023-05-10T02:22:09.448Z,2.20
2023-05-10T02:24:39.709Z,2.30
2023-05-10T02:27:09.808Z,3.00
2023-05-10T02:29:38.458Z,3.20
2023-05-10T02:32:07.503Z,3.10
2023-05-10T02:34:36.227Z,3.80
2023-05-10T02:37:05.812Z,3.20
2023-05-10T02:39:34.725Z,3.60
2023-05-10T02:42:03.516Z,3.70
2023-05-10T02:44:32.658Z,2.90
2023-05-10T02:47:01.155Z,2.60
2023-05-10T02:49:29.267Z,2.60
2023-05-10T02:52:03.575Z,2.60
2023-05-10T02:54:34.424Z,2.50
2023-05-10T02:59:33.873Z,2.60
2023-05-10T03:02:03.248Z,2.60
2023-05-10T03:04:31.294Z,2.60
2023-05-10T03:07:00.093Z,2.30
2023-05-10T03:09:28.549Z,2.20
2023-05-10T03:12:20.863Z,2.40
2023-05-10T03:15:08.656Z,2.30
2023-05-10T03:17:41.593Z,2.30
2023-05-10T03:20:17.699Z,2.40
2023-05-10T03:22:56.431Z,2.40
2023-05-10T03:25:25.216Z,2.50
2023-05-10T03:27:53.569Z,2.70
2023-05-10T03:30:21.946Z,2.40
2023-05-10T03:32:50.227Z,2.30
2023-05-10T03:35:18.420Z,2.40
2023-05-10T03:37:46.584Z,2.90
2023-05-10T03:40:15.089Z,3.30
2023-05-10T03:42:43.404Z,2.60
2023-05-10T03:45:11.654Z,2.60
2023-05-10T03:47:39.746Z,2.70
2023-05-10T03:50:08.925Z,2.50
2023-05-10T03:52:37.541Z,3.20
2023-05-10T03:55:06.437Z,3.10
2023-05-10T03:57:35.401Z,3.30
2023-05-10T04:00:04.814Z,3.50
2023-05-10T04:02:33.005Z,3.40
2023-05-10T04:05:01.177Z,3.40
2023-05-10T04:07:29.314Z,3.20
2023-05-10T04:09:57.393Z,3.60
2023-05-10T04:12:25.511Z,3.20
2023-05-10T04:14:53.618Z,3.10
2023-05-10T04:17:21.986Z,3.10
2023-05-10T04:19:50.122Z,3.10
2023-05-10T04:22:18.708Z,3.00
2023-05-10T04:24:46.814Z,3.10
2023-05-10T04:27:14.838Z,2.90
2023-05-10T04:29:42.930Z,3.70
2023-05-10T04:32:11.260Z,3.70
2023-05-10T04:34:39.327Z,3.70
2023-05-10T04:37:08.635Z,3.30
2023-05-10T04:39:36.887Z,3.80
2023-05-10T04:42:06.798Z,3.90
2023-05-10T04:44:34.872Z,3.80
2023-05-10T04:47:04.006Z,3.90
2023-05-10T04:49:32.069Z,3.40
2023-05-10T04:52:00.207Z,3.80
2023-05-10T04:54:28.338Z,3.70
2023-05-10T04:56:56.375Z,3.80
2023-05-10T04:59:24.471Z,3.50
2023-05-10T05:01:52.874Z,3.60
2023-05-10T05:04:21.035Z,3.50
2023-05-10T05:06:49.443Z,3.30
2023-05-10T05:09:18.280Z,3.60
2023-05-10T05:11:46.370Z,3.50
2023-05-10T05:14:14.479Z,3.50
2023-05-10T05:16:42.558Z,3.10
2023-05-10T05:19:10.726Z,2.60
2023-05-10T05:21:39.116Z,2.60
2023-05-10T05:24:07.385Z,2.10
2023-05-10T05:26:35.435Z,2.10
2023-05-10T05:29:04.044Z,2.20
2023-05-10T05:31:32.123Z,2.40
2023-05-10T05:34:00.278Z,2.20
2023-05-10T05:36:28.322Z,2.30
2023-05-10T05:38:56.445Z,2.00
2023-05-10T05:41:25.760Z,2.10
2023-05-10T05:43:54.039Z,2.30
2023-05-10T05:46:22.165Z,2.10
2023-05-10T05:48:50.246Z,2.10
2023-05-10T05:51:18.314Z,2.10
2023-05-10T05:53:46.462Z,2.10
2023-05-10T05:56:14.660Z,2.20
2023-05-10T05:58:42.680Z,2.00
2023-05-10T06:01:10.697Z,2.00
2023-05-10T06:03:38.797Z,2.20
2023-05-10T06:06:07.060Z,1.80
2023-05-10T06:08:35.348Z,1.90
2023-05-10T06:11:05.229Z,2.30
2023-05-10T06:13:34.503Z,2.10
2023-05-10T06:16:04.422Z,2.10
2023-05-10T06:18:32.591Z,2.10
2023-05-10T06:21:00.968Z,2.30
2023-05-10T06:23:29.076Z,2.20
2023-05-10T06:25:57.145Z,2.20
2023-05-10T06:28:25.311Z,2.00
2023-05-10T06:30:53.397Z,2.10
2023-05-10T06:33:21.456Z,2.40
2023-05-10T06:35:49.620Z,2.20
2023-05-10T06:38:17.751Z,2.30
2023-05-10T06:40:45.825Z,2.00
2023-05-10T06:43:13.932Z,2.10
2023-05-10T06:45:42.181Z,2.30
2023-05-10T06:48:10.492Z,2.50
2023-05-10T06:50:38.591Z,2.60
2023-05-10T06:53:06.695Z,2.20
2023-05-10T06:55:34.822Z,2.20
2023-05-10T06:58:03.201Z,2.10
2023-05-10T07:00:31.479Z,2.30
2023-05-10T07:02:59.855Z,2.10
2023-05-10T07:05:29.251Z,2.30
2023-05-10T07:07:57.376Z,2.20
2023-05-10T07:10:25.394Z,2.10
2023-05-10T07:12:53.611Z,2.60
2023-05-10T07:15:21.910Z,2.00
2023-05-10T07:17:49.985Z,2.20
2023-05-10T07:20:18.409Z,2.30
2023-05-10T07:22:46.498Z,2.20
2023-05-10T07:25:14.794Z,2.20
2023-05-10T07:27:43.039Z,2.30
2023-05-10T07:30:11.643Z,2.20
2023-05-10T07:32:40.616Z,2.30
2023-05-10T07:35:09.549Z,2.40
2023-05-10T07:37:37.616Z,2.30
2023-05-10T07:40:06.390Z,2.30
2023-05-10T07:42:34.458Z,2.20
2023-05-10T07:45:02.561Z,2.30
2023-05-10T07:47:30.691Z,2.20
2023-05-10T07:49:58.841Z,2.40
2023-05-10T07:52:26.872Z,2.00
2023-05-10T07:54:55.528Z,2.40
2023-05-10T07:57:23.789Z,2.40
2023-05-10T07:59:51.981Z,2.20
2023-05-10T08:02:20.157Z,2.10
2023-05-10T08:04:48.227Z,2.00
2023-05-10T08:07:16.334Z,2.30
2023-05-10T08:09:44.528Z,2.10
2023-05-10T08:12:12.611Z,1.90
2023-05-10T08:14:40.731Z,1.80
2023-05-10T08:17:08.774Z,1.90
2023-05-10T08:19:36.872Z,2.00
2023-05-10T08:22:04.980Z,2.10
2023-05-10T08:24:33.034Z,2.00
2023-05-10T08:27:01.039Z,1.70
2023-05-10T08:29:32.696Z,1.80
2023-05-10T08:32:03.773Z,2.20
2023-05-10T08:34:32.368Z,2.20
2023-05-10T08:37:00.511Z,1.70
2023-05-10T08:39:30.790Z,1.70
2023-05-10T08:42:03.424Z,2.10
2023-05-10T08:44:35.337Z,1.90
2023-05-10T08:47:07.811Z,1.70
2023-05-10T08:49:38.624Z,1.50
2023-05-10T08:54:37.672Z,1.80
2023-05-10T08:57:06.187Z,2.10
2023-05-10T08:59:34.439Z,1.90
2023-05-10T09:02:03.282Z,1.60
2023-05-10T09:04:32.459Z,1.50
2023-05-10T09:07:00.752Z,1.50
2023-05-10T09:09:29.383Z,1.70
2023-05-10T09:11:57.828Z,1.50
2023-05-10T09:14:26.208Z,1.80
2023-05-10T09:16:56.403Z,1.50
2023-05-10T09:19:24.624Z,1.30
2023-05-10T09:21:52.630Z,1.50
2023-05-10T09:24:20.982Z,1.50
2023-05-10T09:26:50.221Z,1.40
2023-05-10T09:29:18.493Z,1.50
2023-05-10T09:31:53.217Z,1.50
2023-05-10T09:34:33.027Z,1.30
2023-05-10T09:37:02.651Z,1.40
2023-05-10T09:39:39.565Z,1.50
2023-05-10T09:42:11.485Z,1.50
2023-05-10T09:44:40.487Z,1.50
2023-05-10T09:47:08.753Z,1.40
2023-05-10T09:49:36.846Z,1.50
2023-05-10T09:52:07.289Z,1.50
2023-05-10T09:54:36.125Z,1.50
2023-05-10T09:57:04.522Z,1.50
2023-05-10T09:59:35.974Z,1.40
2023-05-10T10:02:04.220Z,1.40
2023-05-10T10:04:32.830Z,1.70
2023-05-10T10:07:05.514Z,1.50
2023-05-10T10:09:34.798Z,1.50
2023-05-10T10:12:04.766Z,1.40
2023-05-10T10:14:32.961Z,1.40
2023-05-10T10:17:08.995Z,1.60
2023-05-10T10:19:38.052Z,1.40
2023-05-10T10:22:07.099Z,1.30
2023-05-10T10:24:35.298Z,1.50
2023-05-10T10:27:40.548Z,1.40
2023-05-10T10:30:23.541Z,1.50
2023-05-10T10:33:16.872Z,1.50
2023-05-10T10:35:56.437Z,1.40
2023-05-10T10:38:24.680Z,1.50
2023-05-10T10:41:28.269Z,1.40
2023-05-10T10:44:27.123Z,1.30
2023-05-10T10:47:04.744Z,1.50
2023-05-10T10:49:34.825Z,1.40
2023-05-10T10:52:31.473Z,1.30
2023-05-10T10:55:16.210Z,1.50
2023-05-10T10:57:48.499Z,1.50
2023-05-10T11:00:32.004Z,1.40
2023-05-10T11:03:14.700Z,1.20
2023-05-10T11:05:49.395Z,1.20
2023-05-10T11:08:32.105Z,1.50
2023-05-10T11:11:00.270Z,1.30
2023-05-10T11:13:42.726Z,1.50
2023-05-10T11:16:15.714Z,1.30
2023-05-10T11:19:10.539Z,1.40
2023-05-10T11:21:54.855Z,1.40
2023-05-10T11:24:28.155Z,1.60
2023-05-10T11:26:56.338Z,1.50
2023-05-10T11:29:24.400Z,1.40
2023-05-10T11:31:52.476Z,1.40
2023-05-10T11:34:35.397Z,1.40
2023-05-10T11:37:03.619Z,1.40
2023-05-10T11:39:32.894Z,1.60
2023-05-10T11:42:01.523Z,1.60
2023-05-10T11:44:33.553Z,1.40
2023-05-10T11:47:02.483Z,1.40
2023-05-10T11:49:31.129Z,1.50
2023-05-10T11:52:09.660Z,1.50
2023-05-10T11:54:37.968Z,1.30
2023-05-10T11:57:06.254Z,1.60
2023-05-10T11:59:34.475Z,1.50
2023-05-10T12:02:02.767Z,1.30
2023-05-10T12:04:31.337Z,1.40
2023-05-10T12:06:59.710Z,1.80
2023-05-10T12:09:42.556Z,1.50
2023-05-10T12:12:17.120Z,1.50
2023-05-10T12:14:45.179Z,1.40
2023-05-10T12:17:14.353Z,1.60
2023-05-10T12:19:42.552Z,1.70
2023-05-10T12:22:11.627Z,1.30
2023-05-10T12:24:39.978Z,1.50
2023-05-10T12:27:09.892Z,1.40
2023-05-10T12:29:38.023Z,1.20
2023-05-10T12:32:06.230Z,1.50
2023-05-10T12:34:37.280Z,1.40
2023-05-10T12:37:05.756Z,1.50
2023-05-10T12:39:44.419Z,1.50
2023-05-10T12:42:12.698Z,1.40
2023-05-10T12:44:41.183Z,1.30
2023-05-10T12:47:09.407Z,1.20
2023-05-10T12:49:37.509Z,1.30
2023-05-10T12:52:05.597Z,1.40
2023-05-10T12:54:33.727Z,1.20
2023-05-10T12:57:01.785Z,1.60
2023-05-10T12:59:29.846Z,1.30
2023-05-10T13:01:58.705Z,1.40
2023-05-10T13:04:26.934Z,1.20
2023-05-10T13:06:59.575Z,1.70
2023-05-10T13:09:29.628Z,1.30
2023-05-10T13:11:57.847Z,1.30
2023-05-10T13:14:26.402Z,1.30
2023-05-10T13:16:54.973Z,1.20
2023-05-10T13:19:23.038Z,1.30
2023-05-10T13:21:51.278Z,1.30
2023-05-10T13:24:19.286Z,1.30
2023-05-10T13:26:47.362Z,1.50
2023-05-10T13:29:18.428Z,1.40
2023-05-10T13:31:46.963Z,1.40
2023-05-10T13:34:15.068Z,1.10
2023-05-10T13:36:43.153Z,1.40
2023-05-10T13:39:11.225Z,1.30
2023-05-10T13:41:39.360Z,1.30
2023-05-10T13:44:07.463Z,1.10
2023-05-10T13:46:35.883Z,1.40
2023-05-10T13:49:03.987Z,1.20
2023-05-10T13:51:32.784Z,1.50
2023-05-10T13:54:00.849Z,1.30
2023-05-10T13:56:29.028Z,1.20
2023-05-10T13:58:59.372Z,1.40
2023-05-10T14:01:27.857Z,1.40
2023-05-10T14:03:56.107Z,1.40
2023-05-10T14:06:24.214Z,1.30
2023-05-10T14:08:52.263Z,1.40
2023-05-10T14:11:22.574Z,1.50
2023-05-10T14:13:52.017Z,1.50
2023-05-10T14:16:21.282Z,1.10
2023-05-10T14:18:49.505Z,1.40
2023-05-10T14:21:17.594Z,1.20
2023-05-10T14:23:45.676Z,1.20
2023-05-10T14:26:13.823Z,1.10
2023-05-10T14:28:42.072Z,1.40
2023-05-10T14:31:10.111Z,1.30
2023-05-10T14:33:38.183Z,1.30
2023-05-10T14:36:06.763Z,1.30
2023-05-10T14:38:34.781Z,1.20
2023-05-10T14:41:03.022Z,1.20
2023-05-10T14:43:31.535Z,1.20
2023-05-10T14:45:59.728Z,1.30
2023-05-10T14:48:27.756Z,1.20
2023-05-10T14:50:55.842Z,1.20
2023-05-10T14:53:23.906Z,1.40
2023-05-10T14:55:51.937Z,1.20
2023-05-10T14:58:19.976Z,1.50
2023-05-10T15:00:48.078Z,1.40
2023-05-10T15:03:16.617Z,1.30
2023-05-10T15:05:45.187Z,1.20
2023-05-10T15:08:13.630Z,1.30
2023-05-10T15:10:41.827Z,1.30
2023-05-10T15:13:09.846Z,1.30
2023-05-10T15:15:37.963Z,1.20
2023-05-10T15:18:06.790Z,1.30
2023-05-10T15:20:34.997Z,1.50
2023-05-10T15:23:02.997Z,1.30
2023-05-10T15:25:31.037Z,1.40
2023-05-10T15:27:59.069Z,1.30
2023-05-10T15:30:27.127Z,1.10
2023-05-10T15:32:55.251Z,1.30
2023-05-10T15:35:23.387Z,1.20
2023-05-10T15:37:51.577Z,1.40
2023-05-10T15:40:19.717Z,1.40
2023-05-10T15:42:47.738Z,1.30
2023-05-10T15:45:16.649Z,1.30
2023-05-10T15:47:45.811Z,1.40
2023-05-10T15:50:13.944Z,1.30
2023-05-10T15:52:42.491Z,1.20
2023-05-10T15:55:13.592Z,1.30
2023-05-10T15:57:42.826Z,1.40
2023-05-10T16:00:12.772Z,1.50
2023-05-10T16:02:41.911Z,1.00
2023-05-10T16:05:10.162Z,1.20
2023-05-10T16:07:38.223Z,1.30
2023-05-10T16:10:07.101Z,1.40
2023-05-10T16:12:35.214Z,1.40
2023-05-10T16:15:03.417Z,1.20
2023-05-10T16:17:31.801Z,1.40
2023-05-10T16:20:01.330Z,1.50
2023-05-10T16:22:30.068Z,1.20
2023-05-10T16:24:58.168Z,3.60
2023-05-10T16:27:28.874Z,2.60
2023-05-10T16:29:56.943Z,6.70
2023-05-10T16:32:25.268Z,2.10
2023-05-10T16:34:53.578Z,2.20
2023-05-10T16:37:21.674Z,5.80
2023-05-10T16:39:49.771Z,7.80
2023-05-10T16:42:18.311Z,4.10
2023-05-10T16:44:46.401Z,5.90
2023-05-10T16:47:14.448Z,3.50
2023-05-10T16:49:42.783Z,5.40
2023-05-10T16:52:11.159Z,7.20
2023-05-10T16:54:39.259Z,6.90
2023-05-10T16:57:08.670Z,5.80
2023-05-10T16:59:36.759Z,3.50
2023-05-10T17:02:04.880Z,6.90
2023-05-10T17:04:33.086Z,3.70
2023-05-10T17:07:01.185Z,3.20
2023-05-10T17:09:29.278Z,2.50
2023-05-10T17:11:57.534Z,4.90
2023-05-10T17:14:25.619Z,5.50
2023-05-10T17:16:55.166Z,5.00
2023-05-10T17:19:25.632Z,6.30
2023-05-10T17:21:54.490Z,3.20
2023-05-10T17:24:22.623Z,4.80
2023-05-10T17:26:50.818Z,3.40
2023-05-10T17:29:18.937Z,4.10
2023-05-10T17:31:47.631Z,2.90
2023-05-10T17:34:15.788Z,2.30
2023-05-10T17:36:43.925Z,2.50
2023-05-10T17:39:11.989Z,2.30
2023-05-10T17:41:41.043Z,2.30
2023-05-10T17:44:09.059Z,2.50
2023-05-10T17:46:38.067Z,3.10
2023-05-10T17:49:06.052Z,3.20
2023-05-10T17:51:34.140Z,3.10
2023-05-10T17:54:02.424Z,2.60
2023-05-10T17:56:30.586Z,4.30
2023-05-10T17:58:58.650Z,3.70
2023-05-10T18:01:26.841Z,2.60
2023-05-10T18:03:55.052Z,2.10
2023-05-10T18:06:23.716Z,1.80
2023-05-10T18:08:51.809Z,2.20
2023-05-10T18:11:20.148Z,2.30
2023-05-10T18:13:48.204Z,2.10
2023-05-10T18:16:16.308Z,2.00
2023-05-10T18:18:44.386Z,2.00
2023-05-10T18:21:12.427Z,2.10
2023-05-10T18:23:40.773Z,2.00
2023-05-10T18:26:09.014Z,2.30
2023-05-10T18:28:37.114Z,2.10
2023-05-10T18:31:05.235Z,2.40
2023-05-10T18:33:33.494Z,2.50
2023-05-10T18:36:02.582Z,2.10
2023-05-10T18:38:31.124Z,2.20
2023-05-10T18:40:59.265Z,2.40
2023-05-10T18:43:27.359Z,2.60
2023-05-10T18:45:55.630Z,1.90
2023-05-10T18:48:23.774Z,2.30
2023-05-10T18:50:51.832Z,2.20
2023-05-10T18:53:19.910Z,2.60
2023-05-10T18:55:57.039Z,2.20
2023-05-10T18:58:29.071Z,2.30
2023-05-10T19:00:58.799Z,2.50
2023-05-10T19:03:27.023Z,2.50
2023-05-10T19:05:55.243Z,2.60
2023-05-10T19:08:23.894Z,2.60
2023-05-10T19:10:52.089Z,2.50
2023-05-10T19:13:20.137Z,2.30
2023-05-10T19:16:05.580Z,2.60
2023-05-10T19:18:34.103Z,2.70
2023-05-10T19:21:04.683Z,2.40
2023-05-10T19:23:33.800Z,2.10
2023-05-10T19:26:02.451Z,2.30
2023-05-10T19:28:31.237Z,2.20
2023-05-10T19:30:59.346Z,2.20
2023-05-10T19:33:27.463Z,2.40
2023-05-10T19:35:55.804Z,2.30
2023-05-10T19:38:25.158Z,2.50
2023-05-10T19:40:59.534Z,2.20
2023-05-10T19:43:29.573Z,2.30
2023-05-10T19:45:59.961Z,2.20
2023-05-10T19:48:28.875Z,2.40
2023-05-10T19:51:05.202Z,2.40
2023-05-10T19:53:35.051Z,2.70
2023-05-10T19:56:04.900Z,2.40
2023-05-10T19:58:34.161Z,2.50
2023-05-10T20:01:02.736Z,2.20
2023-05-10T20:03:30.951Z,2.50
2023-05-10T20:05:59.177Z,2.60
2023-05-10T20:08:27.588Z,2.50
2023-05-10T20:10:59.083Z,2.30
2023-05-10T20:13:27.236Z,2.30
2023-05-10T20:15:56.562Z,2.50
2023-05-10T20:18:25.040Z,2.50
2023-05-10T20:20:54.878Z,2.40
2023-05-10T20:23:23.052Z,2.40
2023-05-10T20:25:51.292Z,2.30
2023-05-10T20:28:22.928Z,2.80
2023-05-10T20:30:53.285Z,2.50
2023-05-10T20:33:22.554Z,2.70
2023-05-10T20:35:51.445Z,2.40
2023-05-10T20:38:19.698Z,1.90
2023-05-10T20:40:49.212Z,2.30
2023-05-10T20:43:17.472Z,2.40
2023-05-10T20:45:45.533Z,2.50
2023-05-10T20:48:13.718Z,2.70
2023-05-10T20:50:41.800Z,2.70
2023-05-10T20:53:09.929Z,2.50
2023-05-10T20:55:38.515Z,2.20
2023-05-10T20:58:06.684Z,2.20
2023-05-10T21:00:34.835Z,2.20
2023-05-10T21:03:03.089Z,2.30
2023-05-10T21:05:31.324Z,2.20
2023-05-10T21:07:59.417Z,2.20
2023-05-10T21:10:28.597Z,2.30
2023-05-10T21:12:56.877Z,2.20
2023-05-10T21:15:25.842Z,2.20
2023-05-10T21:17:54.581Z,2.40
2023-05-10T21:20:23.621Z,2.20
2023-05-10T21:22:51.692Z,2.40
2023-05-10T21:25:19.818Z,2.20
2023-05-10T21:27:48.032Z,2.20
2023-05-10T21:30:16.431Z,2.10
2023-05-10T21:32:44.854Z,2.30
2023-05-10T21:35:13.065Z,2.50
2023-05-10T21:37:41.163Z,2.70
2023-05-10T21:40:09.804Z,2.20
2023-05-10T21:42:37.968Z,2.40
2023-05-10T21:45:07.362Z,2.40
2023-05-10T21:47:35.959Z,2.90
2023-05-10T21:50:04.892Z,2.90
2023-05-10T21:52:32.976Z,2.70
2023-05-10T21:55:01.210Z,2.10
2023-05-10T21:57:29.261Z,2.70
2023-05-10T21:59:57.340Z,2.60
2023-05-10T22:02:25.638Z,2.40
2023-05-10T22:04:53.910Z,2.60
2023-05-10T22:07:21.938Z,2.60
2023-05-10T22:09:50.002Z,2.50
2023-05-10T22:12:18.021Z,2.90
2023-05-10T22:14:47.450Z,2.70
2023-05-10T22:17:16.850Z,2.70
2023-05-10T22:19:44.952Z,2.70
2023-05-10T22:22:13.187Z,2.70
2023-05-10T22:24:41.215Z,2.70
2023-05-10T22:27:09.423Z,2.70
2023-05-10T22:29:37.504Z,2.80
2023-05-10T22:32:06.535Z,2.30
2023-05-10T22:34:35.873Z,2.60
2023-05-10T22:37:04.080Z,2.70
2023-05-10T22:39:32.160Z,2.70
2023-05-10T22:42:00.286Z,2.50
2023-05-10T22:44:28.344Z,2.60
2023-05-10T22:46:56.530Z,2.70
2023-05-10T22:49:24.741Z,2.80
2023-05-10T22:51:52.778Z,3.10
2023-05-10T22:54:20.945Z,2.40
2023-05-10T22:56:49.046Z,2.80
2023-05-10T22:59:17.211Z,2.70
2023-05-10T23:01:45.336Z,2.60
2023-05-10T23:04:13.559Z,2.80
2023-05-10T23:06:41.710Z,2.40
2023-05-10T23:09:09.914Z,2.40
2023-05-10T23:11:38.136Z,2.70
2023-05-10T23:14:06.352Z,2.70
2023-05-10T23:16:34.473Z,2.40
2023-05-10T23:19:02.709Z,2.80
2023-05-10T23:21:32.247Z,3.10
2023-05-10T23:24:00.591Z,3.30
2023-05-10T23:26:28.727Z,3.20
2023-05-10T23:28:56.846Z,3.30
2023-05-10T23:31:24.992Z,3.00
2023-05-10T23:33:53.134Z,2.90
2023-05-10T23:36:21.180Z,3.20
2023-05-10T23:38:49.203Z,2.90
2023-05-10T23:41:17.359Z,3.50
2023-05-10T23:43:45.446Z,3.80
2023-05-10T23:46:13.568Z,4.00
2023-05-10T23:48:41.810Z,3.90
2023-05-10T23:51:09.901Z,3.70
2023-05-10T23:53:46.987Z,3.60
2023-05-10T23:56:15.073Z,3.30
2023-05-10T23:58:43.111Z,3.80
